Skip Navigation Links
NOAA logo - Click to go to the NOAA homepage
NOAA's National Weather Service
Alaska Aviation Weather Unit
  NWS logo - Click to go to the NWS homepage
Left Navbar Graphic     12 AKDT = 20 GMT

   
NOAA is celebrating 200 years of science, service, and stewardship. Visit the NOAA 200th celebration Web site to learn more.
USA.gov is the U.S. Government's official Web portal to all Federal, state and local government Web resources and services.
Facebook
NWS on Facebook

Important Change Regarding the AAWU Web Presence

 

Over the last several months, the AAWU has been working to navigate its webpages to a nationally supported server. Security, as well as other needs, have necessitated the change.  We have been given an extension for the site changeover while we diligently work at addressing feedback received. As of July 14, 2017, aawu.arh.noaa.gov will be discontinued. The new AAWU web address is weather.gov/aawu. It is now live and will run in-parallel with the old site until it is discontinued on July 14, 2017. Please continue to send any feedback or questions regarding the new webpages to nws.ar.aawu.webauthors@noaa.gov.  Thank you for your patience during this time of transition.
AAWU Home :: Display TAF Add Bookmark
TAF PAAQ 252044Z 2521/2618 17004KT 4SM -RA BR SCT002 OVC007
      TEMPO 2521/2524 1SM -RA BR OVC002
     FM260300 VRB04KT P6SM VCSH SCT007 OVC011
     FM260800 VRB03KT 2SM BR VCFG BKN005=
METAR PAAQ 251453Z AUTO 15004KT 10SM BKN035 OVC050 11/11 A3000 RMK AO2
     SLP159 60003 T01110106 55006 TSNO=

SPECI PAAQ 251525Z AUTO 14003KT 10SM SCT005 OVC035 11/11 A3000 RMK
 AO2 T01110106 TSNO=

SPECI PAAQ 251545Z AUTO 12003KT 9SM BKN005 OVC034 11/11 A3000 RMK AO2
     T01060106 TSNO=

METAR PAAQ 251553Z AUTO 12004KT 8SM BKN004 BKN016 OVC034 11/11 A3000 RMK
     AO2 SLP160 T01060106 TSNO=

PAAQ 251644Z 13003KT 1 3/4SM BR BKN003 BKN008 OVC012 11/11 A3000
     RMK AO2 T01110111=

METAR PAAQ 251653Z 18003KT 1 1/2SM BR BKN002 OVC007 11/11 A3000 RMK AO2
     SLP159 T01110111=

SPECI PAAQ 251657Z 17003KT 2 1/2SM BR SCT002 OVC007 11/11 A2999 RMK AO2
     T01110111=

SPECI PAAQ 251705Z 00000KT 4SM BR FEW002 OVC007 12/12 A2999 RMK AO2
     T01170117=

METAR PAAQ 251753Z 00000KT 9SM OVC005 12/12 A2999 RMK AO2 CIG 002V009
     SLP158 60003 T01220122 10122 20106 58002=

SPECI PAAQ 251809Z 00000KT 9SM OVC004 12/12 A2999 RMK AO2 T01220122=

METAR PAAQ 251853Z 00000KT 6SM BR OVC003 13/13 A2999 RMK AO2 SLP157
     T01280128=

SPECI PAAQ 251942Z 14003KT 1 3/4SM BR OVC002 13/13 A2999 RMK AO2
     T01330133=

METAR PAAQ 251953Z 13003KT 1/2SM -RA FG OVC002 13/13 A2999 RMK AO2 RAB44
     SLP156 P0000 T01280128=


NOAA's National Weather Service
Alaska Aviation Weather Unit
6930 Sand Lake Road
Anchorage, AK 99502-1845
Disclaimer
Credits
Glossary
Privacy Policy
About Us
Career Opportunities
Contact AAWU Internet Services Site last modified: April, 17th 2012